createdAt,value
2018-07-03T00:01:58.620Z,95078.81
2018-07-03T00:04:25.058Z,95065.02
2018-07-03T00:06:51.382Z,95071.65
2018-07-03T00:09:17.706Z,95080.86
2018-07-03T00:11:44.088Z,95080.35
2018-07-03T00:14:10.429Z,95088.07
2018-07-03T00:16:36.849Z,95093.28
2018-07-03T00:19:03.293Z,95087.39
2018-07-03T00:21:29.771Z,95088.70
2018-07-03T00:23:56.140Z,95081.81
2018-07-03T00:26:22.566Z,95084.49
2018-07-03T00:28:49.167Z,95075.87
2018-07-03T00:31:15.566Z,95086.52
2018-07-03T00:33:41.931Z,95086.88
2018-07-03T00:36:08.398Z,95087.70
2018-07-03T00:38:34.871Z,95088.62
2018-07-03T00:41:01.500Z,95088.95
2018-07-03T00:43:28.004Z,95090.78
2018-07-03T00:45:54.524Z,95090.13
2018-07-03T00:48:20.881Z,95093.02
2018-07-03T00:50:47.508Z,95094.73
2018-07-03T00:53:13.890Z,95097.88
2018-07-03T00:55:40.453Z,95102.00
2018-07-03T00:58:06.820Z,95106.19
2018-07-03T01:00:33.378Z,95104.01
2018-07-03T01:02:59.912Z,95104.80
2018-07-03T01:05:26.298Z,95104.42
2018-07-03T01:07:52.776Z,95101.41
2018-07-03T01:10:19.336Z,95096.42
2018-07-03T01:12:45.733Z,95100.90
2018-07-03T01:15:12.252Z,95099.53
2018-07-03T01:17:38.575Z,95102.69
2018-07-03T01:20:04.944Z,95094.26
2018-07-03T01:22:31.282Z,95092.59
2018-07-03T01:24:57.686Z,95100.55
2018-07-03T01:27:23.993Z,95100.47
2018-07-03T01:29:50.371Z,95097.12
2018-07-03T01:32:16.726Z,95105.55
2018-07-03T01:34:43.342Z,95114.58
2018-07-03T01:37:09.748Z,95105.27
2018-07-03T01:39:36.126Z,95102.25
2018-07-03T01:42:02.591Z,95100.85
2018-07-03T01:44:29.139Z,95106.75
2018-07-03T01:46:55.520Z,95104.75
2018-07-03T01:49:21.930Z,95106.46
2018-07-03T01:51:48.364Z,95098.86
2018-07-03T01:54:14.743Z,95098.75
2018-07-03T01:56:41.071Z,95095.59
2018-07-03T01:59:07.387Z,95103.20
2018-07-03T02:01:34.025Z,95103.66
2018-07-03T02:04:00.552Z,95105.09
2018-07-03T02:06:26.984Z,95102.25
2018-07-03T02:08:53.388Z,95092.13
2018-07-03T02:11:19.774Z,95096.22
2018-07-03T02:13:46.280Z,95089.44
2018-07-03T02:16:12.695Z,95096.59
2018-07-03T02:18:39.063Z,95093.95
2018-07-03T02:21:05.506Z,95092.89
2018-07-03T02:23:31.866Z,95099.13
2018-07-03T02:25:58.200Z,95095.44
2018-07-03T02:28:24.562Z,95096.48
2018-07-03T02:30:51.027Z,95100.69
2018-07-03T02:33:17.396Z,95093.02
2018-07-03T02:35:43.742Z,95094.38
2018-07-03T02:38:10.038Z,95102.13
2018-07-03T02:40:36.425Z,95121.44
2018-07-03T02:43:02.795Z,95124.16
2018-07-03T02:45:29.255Z,95129.36
2018-07-03T02:47:55.585Z,95123.27
2018-07-03T02:50:22.047Z,95135.60
2018-07-03T02:52:48.422Z,95135.05
2018-07-03T02:55:14.793Z,95141.14
2018-07-03T02:57:41.132Z,95136.66
2018-07-03T03:00:07.506Z,95142.98
2018-07-03T03:02:33.851Z,95146.03
2018-07-03T03:05:00.162Z,95153.02
2018-07-03T03:07:26.628Z,95151.37
2018-07-03T03:09:53.138Z,95158.63
2018-07-03T03:12:19.684Z,95161.78
2018-07-03T03:14:46.008Z,95145.73
2018-07-03T03:17:12.321Z,95160.79
2018-07-03T03:19:38.639Z,95156.06
2018-07-03T03:22:05.087Z,95158.50
2018-07-03T03:24:31.412Z,95160.32
2018-07-03T03:26:57.766Z,95158.40
2018-07-03T03:29:24.122Z,95156.45
2018-07-03T03:31:50.726Z,95149.89
2018-07-03T03:34:17.078Z,95156.21
2018-07-03T03:36:43.463Z,95162.13
2018-07-03T03:39:09.871Z,95158.83
2018-07-03T03:41:36.178Z,95160.44
2018-07-03T03:44:02.622Z,95148.43
2018-07-03T03:46:29.071Z,95152.32
2018-07-03T03:48:55.527Z,95153.21
2018-07-03T03:51:21.853Z,95138.89
2018-07-03T03:53:48.365Z,95139.86
2018-07-03T03:56:14.879Z,95137.20
2018-07-03T03:58:41.204Z,95140.73
2018-07-03T04:01:07.593Z,95140.02
2018-07-03T04:03:33.961Z,95146.09
2018-07-03T04:06:00.391Z,95138.46
2018-07-03T04:08:26.958Z,95145.84
2018-07-03T04:10:53.335Z,95141.89
2018-07-03T04:13:19.698Z,95138.73
2018-07-03T04:15:46.008Z,95146.97
2018-07-03T04:18:12.398Z,95149.88
2018-07-03T04:20:38.721Z,95146.13
2018-07-03T04:23:05.087Z,95134.29
2018-07-03T04:25:31.410Z,95153.78
2018-07-03T04:27:57.937Z,95156.67
2018-07-03T04:30:24.465Z,95161.36
2018-07-03T04:32:50.843Z,95165.20
2018-07-03T04:35:17.230Z,95164.08
2018-07-03T04:37:43.600Z,95163.14
2018-07-03T04:40:10.152Z,95161.50
2018-07-03T04:42:36.479Z,95167.24
2018-07-03T04:45:02.820Z,95165.61
2018-07-03T04:47:29.191Z,95169.44
2018-07-03T04:49:55.524Z,95180.17
2018-07-03T04:52:22.143Z,95182.27
2018-07-03T04:54:48.487Z,95183.55
2018-07-03T04:57:14.845Z,95171.68
2018-07-03T04:59:41.188Z,95177.37
2018-07-03T05:02:07.543Z,95181.49
2018-07-03T05:04:33.923Z,95183.93
2018-07-03T05:07:00.256Z,95182.97
2018-07-03T05:09:26.615Z,95187.25
2018-07-03T05:11:52.967Z,95185.70
2018-07-03T05:14:19.442Z,95180.94
2018-07-03T05:16:45.790Z,95182.96
2018-07-03T05:19:12.155Z,95184.66
2018-07-03T05:21:38.475Z,95186.47
2018-07-03T05:24:04.885Z,95188.18
2018-07-03T05:26:31.560Z,95177.22
2018-07-03T05:28:57.917Z,95190.05
2018-07-03T05:31:24.566Z,95180.62
2018-07-03T05:33:50.978Z,95188.78
2018-07-03T05:36:17.515Z,95186.13
2018-07-03T05:38:43.888Z,95185.20
2018-07-03T05:41:10.409Z,95175.79
2018-07-03T05:43:36.893Z,95183.66
2018-07-03T05:46:03.545Z,95163.66
2018-07-03T05:48:29.870Z,95173.67
2018-07-03T05:50:56.267Z,95173.91
2018-07-03T05:53:22.661Z,95168.84
2018-07-03T05:55:49.053Z,95172.36
2018-07-03T05:58:15.463Z,95164.60
2018-07-03T06:00:41.830Z,95169.86
2018-07-03T06:03:08.361Z,95171.82
2018-07-03T06:05:34.765Z,95165.36
2018-07-03T06:08:01.118Z,95160.52
2018-07-03T06:10:27.951Z,95160.56
2018-07-03T06:12:54.306Z,95163.61
2018-07-03T06:15:20.878Z,95162.31
2018-07-03T06:17:47.545Z,95167.55
2018-07-03T06:20:16.123Z,95163.88
2018-07-03T06:22:46.750Z,95156.53
2018-07-03T06:25:14.659Z,95148.68
2018-07-03T06:27:49.279Z,95160.86
2018-07-03T06:39:00.573Z,95149.92
2018-07-03T06:41:33.104Z,95151.69
2018-07-03T06:44:08.794Z,95150.72
2018-07-03T06:46:35.405Z,95147.69
2018-07-03T06:49:01.760Z,95145.05
2018-07-03T06:51:28.139Z,95145.63
2018-07-03T06:53:54.664Z,95141.74
2018-07-03T06:56:20.987Z,95140.27
2018-07-03T06:58:47.658Z,95127.12
2018-07-03T07:01:14.141Z,95144.66
2018-07-03T07:03:41.592Z,95138.49
2018-07-03T07:06:07.908Z,95138.08
2018-07-03T07:08:34.423Z,95136.58
2018-07-03T07:11:00.768Z,95134.00
2018-07-03T07:13:27.130Z,95141.09
2018-07-03T07:15:53.623Z,95132.58
2018-07-03T07:18:20.039Z,95140.05
2018-07-03T07:20:46.462Z,95136.19
2018-07-03T07:23:13.081Z,95138.70
2018-07-03T07:25:39.420Z,95135.42
2018-07-03T07:28:05.805Z,95141.70
2018-07-03T07:30:32.303Z,95125.55
2018-07-03T07:32:58.869Z,95139.47
2018-07-03T07:35:25.493Z,95132.24
2018-07-03T07:37:51.986Z,95133.46
2018-07-03T07:40:18.392Z,95123.92
2018-07-03T07:42:45.095Z,95127.58
2018-07-03T07:45:11.605Z,95126.52
2018-07-03T07:47:38.074Z,95119.91
2018-07-03T07:50:04.470Z,95119.97
2018-07-03T07:52:31.166Z,95117.63
2018-07-03T07:54:57.613Z,95119.02
2018-07-03T07:57:23.956Z,95125.14
2018-07-03T07:59:52.161Z,95108.37
2018-07-03T08:02:18.529Z,95123.02
2018-07-03T08:04:45.167Z,95124.80
2018-07-03T08:07:11.682Z,95126.20
2018-07-03T08:09:38.103Z,95123.16
2018-07-03T08:12:04.614Z,95115.66
2018-07-03T08:14:31.084Z,95103.02
2018-07-03T08:16:58.428Z,95115.11
2018-07-03T08:19:25.096Z,95119.07
2018-07-03T08:21:51.508Z,95114.38
2018-07-03T08:24:17.875Z,95110.02
2018-07-03T08:26:44.257Z,95118.66
2018-07-03T08:29:10.611Z,95116.66
2018-07-03T08:31:37.088Z,95115.23
2018-07-03T08:34:03.492Z,95111.17
2018-07-03T08:36:31.105Z,95114.39
2018-07-03T08:38:57.746Z,95105.78
2018-07-03T08:41:24.206Z,95108.63
2018-07-03T08:43:50.918Z,95105.84
2018-07-03T08:46:17.355Z,95107.77
2018-07-03T08:48:43.873Z,95116.61
2018-07-03T08:51:10.319Z,95113.61
2018-07-03T08:53:36.963Z,95108.10
2018-07-03T08:56:04.481Z,95105.25
2018-07-03T08:58:31.106Z,95108.84
2018-07-03T09:00:57.684Z,95110.20
2018-07-03T09:03:24.336Z,95106.62
2018-07-03T09:05:50.913Z,95110.22
2018-07-03T09:08:17.337Z,95103.38
2018-07-03T09:10:43.812Z,95107.89
2018-07-03T09:13:10.431Z,95101.62
2018-07-03T09:15:36.870Z,95095.97
2018-07-03T09:18:03.392Z,95092.02
2018-07-03T09:20:29.828Z,95094.66
2018-07-03T09:22:56.168Z,95095.16
2018-07-03T09:25:22.790Z,95087.47
2018-07-03T09:27:49.186Z,95088.40
2018-07-03T09:30:15.588Z,95079.62
2018-07-03T09:32:42.037Z,95077.04
2018-07-03T09:35:08.479Z,95073.28
2018-07-03T09:37:35.066Z,95065.84
2018-07-03T09:40:01.463Z,95073.73
2018-07-03T09:42:27.923Z,95065.78
2018-07-03T09:44:54.251Z,95073.70
2018-07-03T09:47:20.617Z,95066.41
2018-07-03T09:49:46.997Z,95071.16
2018-07-03T09:52:13.512Z,95072.95
2018-07-03T09:54:39.907Z,95067.78
2018-07-03T09:57:07.109Z,95059.88
2018-07-03T09:59:33.740Z,95060.21
2018-07-03T10:02:00.110Z,95054.48
2018-07-03T10:04:26.698Z,95052.64
2018-07-03T10:06:53.294Z,95061.17
2018-07-03T10:09:19.700Z,95057.47
2018-07-03T10:11:46.204Z,95043.80
2018-07-03T10:14:12.700Z,95052.11
2018-07-03T10:16:39.542Z,95052.63
2018-07-03T10:19:08.025Z,95038.44
2018-07-03T10:21:34.735Z,95056.98
2018-07-03T10:24:01.257Z,95049.91
2018-07-03T10:26:27.869Z,95053.99
2018-07-03T10:28:54.564Z,95057.42
2018-07-03T10:31:21.265Z,95049.45
2018-07-03T10:33:49.029Z,95052.77
2018-07-03T10:36:15.471Z,95049.91
2018-07-03T10:38:42.008Z,95050.69
2018-07-03T10:41:10.491Z,95043.09
2018-07-03T10:43:47.620Z,95048.01
2018-07-03T10:51:33.145Z,95044.53
2018-07-03T10:54:00.087Z,95035.66
2018-07-03T10:56:26.885Z,95043.03
2018-07-03T10:58:56.094Z,95033.57
2018-07-03T11:01:23.161Z,95034.97
2018-07-03T11:03:50.341Z,95029.53
2018-07-03T11:06:18.239Z,95028.61
2018-07-03T11:08:45.096Z,95019.67
2018-07-03T11:11:14.104Z,95026.05
2018-07-03T11:13:42.232Z,95017.72
2018-07-03T11:16:08.784Z,95019.01
2018-07-03T11:18:36.561Z,95011.27
2018-07-03T11:21:03.141Z,95009.88
2018-07-03T11:23:29.987Z,95005.34
2018-07-03T11:25:57.623Z,95003.41
2018-07-03T11:28:26.793Z,95001.37
2018-07-03T12:15:45.797Z,94967.95
2018-07-03T12:18:13.633Z,94973.27
2018-07-03T12:20:48.668Z,94970.02
2018-07-03T12:23:16.648Z,94973.10
2018-07-03T12:25:44.284Z,94963.37
2018-07-03T12:28:11.203Z,94960.03
2018-07-03T12:41:22.276Z,94941.05
2018-07-03T12:43:54.469Z,94942.75
2018-07-03T12:46:21.794Z,94944.05
2018-07-03T12:48:50.950Z,94941.88
2018-07-03T12:51:17.904Z,94946.81
2018-07-03T12:53:48.006Z,94944.58
2018-07-03T12:56:14.950Z,94938.77
2018-07-03T12:58:41.912Z,94941.41
2018-07-03T13:01:10.987Z,94941.32
2018-07-03T13:11:12.679Z,94936.88
2018-07-03T13:13:44.035Z,94940.16
2018-07-03T13:16:10.803Z,94944.45
2018-07-03T13:18:38.229Z,94940.47
2018-07-03T13:21:13.306Z,94936.34
2018-07-03T13:23:43.896Z,94947.19
2018-07-03T13:26:11.280Z,94944.92
2018-07-03T13:28:38.173Z,94952.77
2018-07-03T13:31:13.638Z,94943.69
2018-07-03T13:47:03.138Z,94946.88
2018-07-03T13:49:42.921Z,94945.50
2018-07-03T13:52:19.637Z,94948.65
2018-07-03T13:57:26.890Z,94944.17
2018-07-03T13:59:53.776Z,94935.11
2018-07-03T14:02:21.032Z,94947.42
2018-07-03T14:04:54.617Z,94937.88
2018-07-03T14:10:01.299Z,94947.09
2018-07-03T14:12:31.396Z,94947.17
2018-07-03T14:15:00.419Z,94946.00
2018-07-03T14:17:27.173Z,94944.36
2018-07-03T14:38:33.569Z,94932.62
2018-07-03T14:41:00.473Z,94944.78
2018-07-03T14:43:28.629Z,94938.40
2018-07-03T14:45:55.473Z,94948.38
2018-07-03T14:48:22.227Z,94931.01
2018-07-03T14:50:49.765Z,94940.23
2018-07-03T14:53:16.517Z,94941.81
2018-07-03T14:55:44.761Z,94942.41
2018-07-03T14:58:11.507Z,94945.06
2018-07-03T15:00:38.218Z,94930.38
2018-07-03T15:03:05.610Z,94941.05
2018-07-03T15:05:33.517Z,94936.16
2018-07-03T15:08:00.389Z,94938.52
2018-07-03T15:10:26.943Z,94939.03
2018-07-03T15:12:55.095Z,94933.31
2018-07-03T15:15:21.836Z,94935.55
2018-07-03T15:17:48.790Z,94934.92
2018-07-03T15:20:15.806Z,94928.73
2018-07-03T15:22:42.294Z,94935.33
2018-07-03T15:25:08.959Z,94947.96
2018-07-03T15:27:41.236Z,94945.84
2018-07-03T15:30:07.743Z,94941.64
2018-07-03T15:32:35.121Z,94951.05
2018-07-03T15:35:01.694Z,94945.69
2018-07-03T15:37:33.473Z,94958.06
2018-07-03T15:40:02.425Z,94957.50
2018-07-03T15:42:29.818Z,94955.41
2018-07-03T15:44:56.433Z,94955.56
2018-07-03T15:47:22.970Z,94957.08
2018-07-03T15:52:27.886Z,94962.86
2018-07-03T15:54:55.301Z,94965.52
2018-07-03T15:57:22.097Z,94964.47
2018-07-03T15:59:49.401Z,94964.44
2018-07-03T16:02:16.385Z,94980.95
2018-07-03T16:04:43.716Z,94980.91
2018-07-03T16:07:10.351Z,94983.77
2018-07-03T16:09:36.829Z,94980.68
2018-07-03T16:12:03.848Z,94978.59
2018-07-03T16:14:31.208Z,94980.56
2018-07-03T16:16:57.807Z,94980.89
2018-07-03T16:19:24.298Z,94989.76
2018-07-03T16:21:51.608Z,94975.52
2018-07-03T16:24:18.296Z,94977.55
2018-07-03T16:26:47.666Z,94968.65
2018-07-03T16:29:14.864Z,94973.95
2018-07-03T16:31:41.322Z,94981.11
2018-07-03T16:34:07.775Z,94981.58
2018-07-03T16:36:34.397Z,94982.88
2018-07-03T16:39:02.770Z,94988.78
2018-07-03T16:41:30.130Z,94984.44
2018-07-03T16:43:56.582Z,94996.82
2018-07-03T16:46:23.008Z,95006.72
2018-07-03T16:48:52.073Z,95015.48
2018-07-03T16:51:19.302Z,95016.23
2018-07-03T16:53:45.697Z,95022.92
2018-07-03T16:56:12.098Z,95023.45
2018-07-03T16:58:38.470Z,95034.14
2018-07-03T17:01:05.404Z,95028.02
2018-07-03T17:03:32.031Z,95045.56
2018-07-03T17:05:58.419Z,95049.22
2018-07-03T17:08:25.795Z,95044.90
2018-07-03T17:10:52.185Z,95038.50
2018-07-03T17:13:19.112Z,95041.52
2018-07-03T17:15:46.932Z,95045.20
2018-07-03T17:18:13.295Z,95047.47
2018-07-03T17:20:42.092Z,95060.26
2018-07-03T17:23:08.479Z,95056.60
2018-07-03T17:25:35.126Z,95067.36
2018-07-03T17:28:01.855Z,95068.38
2018-07-03T17:30:28.187Z,95070.02
2018-07-03T17:32:54.679Z,95069.26
2018-07-03T17:35:21.069Z,95079.41
2018-07-03T17:37:47.729Z,95077.36
2018-07-03T17:40:14.303Z,95078.05
2018-07-03T17:42:40.716Z,95086.03
2018-07-03T17:45:07.468Z,95089.66
2018-07-03T17:47:34.019Z,95090.38
2018-07-03T17:50:01.374Z,95092.30
2018-07-03T17:52:28.130Z,95081.12
2018-07-03T17:54:54.815Z,95071.77
2018-07-03T17:57:21.218Z,95082.95
2018-07-03T17:59:47.776Z,95084.23
2018-07-03T18:02:14.124Z,95082.77
2018-07-03T18:04:40.520Z,95074.25
2018-07-03T18:07:07.589Z,95081.19
2018-07-03T18:09:34.054Z,95074.84
2018-07-03T18:12:00.492Z,95075.31
2018-07-03T18:14:26.918Z,95079.54
2018-07-03T18:16:53.388Z,95083.31
2018-07-03T18:19:19.834Z,95086.17
2018-07-03T18:21:46.195Z,95077.18
2018-07-03T18:24:12.558Z,95076.34
2018-07-03T18:26:39.079Z,95079.66
2018-07-03T18:29:05.296Z,95076.05
2018-07-03T18:31:31.890Z,95084.24
2018-07-03T18:33:59.386Z,95080.95
2018-07-03T18:36:25.730Z,95084.95
2018-07-03T18:38:52.376Z,95084.34
2018-07-03T18:41:18.742Z,95090.27
2018-07-03T18:43:45.243Z,95098.88
2018-07-03T18:46:11.721Z,95091.85
2018-07-03T18:48:38.019Z,95093.61
2018-07-03T18:51:04.529Z,95094.48
2018-07-03T18:53:30.867Z,95100.27
2018-07-03T18:55:57.265Z,95113.06
2018-07-03T18:58:24.055Z,95105.58
2018-07-03T19:00:50.868Z,95105.73
2018-07-03T19:03:17.367Z,95111.88
2018-07-03T19:05:43.864Z,95107.92
2018-07-03T19:08:10.311Z,95114.30
2018-07-03T19:10:37.031Z,95109.55
2018-07-03T19:13:03.691Z,95119.62
2018-07-03T19:15:30.091Z,95128.69
2018-07-03T19:17:56.721Z,95119.55
2018-07-03T19:20:23.176Z,95128.00
2018-07-03T19:22:49.533Z,95132.65
2018-07-03T19:25:16.091Z,95139.39
2018-07-03T19:27:42.698Z,95135.94
2018-07-03T19:30:09.266Z,95135.58
2018-07-03T19:32:36.277Z,95133.66
2018-07-03T19:35:02.617Z,95147.58
2018-07-03T19:37:29.120Z,95146.18
2018-07-03T19:42:28.035Z,95142.02
2018-07-03T19:44:54.359Z,95148.84
2018-07-03T19:47:20.821Z,95143.88
2018-07-03T19:49:47.520Z,95149.25
2018-07-03T19:52:14.073Z,95138.63
2018-07-03T19:54:40.445Z,95142.92
2018-07-03T19:57:07.183Z,95139.30
2018-07-03T19:59:33.588Z,95147.34
2018-07-03T20:02:00.093Z,95148.55
2018-07-03T20:04:26.592Z,95149.14
2018-07-03T20:06:53.005Z,95139.31
2018-07-03T20:09:19.783Z,95142.03
2018-07-03T20:11:46.158Z,95141.16
2018-07-03T20:14:12.530Z,95142.62
2018-07-03T20:16:39.186Z,95145.41
2018-07-03T20:19:05.712Z,95144.34
2018-07-03T20:21:32.425Z,95144.48
2018-07-03T20:23:58.766Z,95144.63
2018-07-03T20:26:25.260Z,95145.23
2018-07-03T20:28:51.833Z,95151.56
2018-07-03T20:31:18.530Z,95144.34
2018-07-03T20:33:44.914Z,95145.55
2018-07-03T20:36:11.539Z,95148.05
2018-07-03T20:38:38.328Z,95144.99
2018-07-03T20:41:05.179Z,95135.63
2018-07-03T20:43:31.964Z,95125.34
2018-07-03T20:45:58.424Z,95133.17
2018-07-03T20:48:25.188Z,95131.27
2018-07-03T20:50:51.554Z,95140.73
2018-07-03T20:53:17.919Z,95130.51
2018-07-03T20:55:45.097Z,95132.21
2018-07-03T20:58:11.843Z,95133.70
2018-07-03T21:00:38.245Z,95135.07
2018-07-03T21:03:04.747Z,95134.81
2018-07-03T21:05:31.146Z,95135.60
2018-07-03T21:07:57.592Z,95134.86
2018-07-03T21:10:24.266Z,95136.48
2018-07-03T21:12:50.760Z,95138.08
2018-07-03T21:15:17.106Z,95137.06
2018-07-03T21:17:43.750Z,95137.86
2018-07-03T21:20:10.641Z,95131.28
2018-07-03T21:22:36.996Z,95140.78
2018-07-03T21:25:03.634Z,95142.37
2018-07-03T21:27:31.619Z,95138.91
2018-07-03T21:29:58.153Z,95138.48
2018-07-03T21:32:25.496Z,95134.55
2018-07-03T21:34:51.876Z,95141.84
2018-07-03T21:37:18.259Z,95134.28
2018-07-03T21:39:45.396Z,95138.81
2018-07-03T21:42:11.861Z,95135.70
2018-07-03T21:44:38.652Z,95128.45
2018-07-03T21:47:05.171Z,95141.70
2018-07-03T21:49:32.054Z,95137.55
2018-07-03T21:51:58.597Z,95133.52
2018-07-03T21:54:25.916Z,95138.78
2018-07-03T21:56:52.670Z,95132.77
2018-07-03T21:59:19.095Z,95132.77
2018-07-03T22:01:46.231Z,95137.39
2018-07-03T22:04:12.639Z,95133.88
2018-07-03T22:06:40.708Z,95134.83
2018-07-03T22:09:07.137Z,95136.05
2018-07-03T22:11:33.600Z,95137.81
2018-07-03T22:14:00.058Z,95134.47
2018-07-03T22:16:26.416Z,95133.73
2018-07-03T22:18:54.612Z,95134.50
2018-07-03T22:21:21.807Z,95129.94
2018-07-03T22:23:49.785Z,95110.08
2018-07-03T22:26:16.223Z,95120.79
2018-07-03T22:28:42.551Z,95120.73
2018-07-03T22:31:09.402Z,95115.27
2018-07-03T22:33:35.756Z,95122.30
2018-07-03T22:36:02.201Z,95120.63
2018-07-03T22:38:28.771Z,95122.60
2018-07-03T22:40:55.225Z,95107.73
2018-07-03T22:43:21.948Z,95120.41
2018-07-03T22:45:50.459Z,95120.75
2018-07-03T22:48:17.029Z,95128.89
2018-07-03T22:50:43.576Z,95122.78
2018-07-03T22:53:10.035Z,95123.72
2018-07-03T22:55:37.223Z,95124.77
2018-07-03T22:58:03.902Z,95132.98
2018-07-03T23:00:30.482Z,95126.81
2018-07-03T23:02:57.383Z,95124.31
2018-07-03T23:05:23.911Z,95120.48
2018-07-03T23:07:50.573Z,95125.79
2018-07-03T23:10:17.361Z,95119.94
2018-07-03T23:12:44.023Z,95123.82
2018-07-03T23:15:10.401Z,95126.94
2018-07-03T23:17:36.928Z,95117.33
2018-07-03T23:20:03.490Z,95129.44
2018-07-03T23:22:30.043Z,95124.94
2018-07-03T23:24:56.615Z,95119.70
2018-07-03T23:27:23.824Z,95121.59
2018-07-03T23:29:50.706Z,95122.88
2018-07-03T23:32:17.069Z,95131.64
2018-07-03T23:34:43.894Z,95136.46
2018-07-03T23:37:10.400Z,95142.34
2018-07-03T23:39:36.837Z,95133.55
2018-07-03T23:42:03.406Z,95138.87
2018-07-03T23:44:29.759Z,95135.55
2018-07-03T23:46:56.144Z,95127.62
2018-07-03T23:49:27.295Z,95131.99
2018-07-03T23:51:54.030Z,95147.66
2018-07-03T23:54:21.065Z,95139.05
2018-07-03T23:56:49.170Z,95153.63
2018-07-03T23:59:15.482Z,95148.72
